createdAt,value
2019-05-12T00:01:20.456Z,6.60
2019-05-12T00:04:04.830Z,6.10
2019-05-12T00:06:34.743Z,6.53
2019-05-12T00:09:09.869Z,5.93
2019-05-12T00:11:44.682Z,6.80
2019-05-12T00:14:17.765Z,7.20
2019-05-12T00:16:50.578Z,6.40
2019-05-12T00:19:20.360Z,8.90
2019-05-12T00:21:52.297Z,8.10
2019-05-12T00:24:22.030Z,8.10
2019-05-12T00:26:58.573Z,8.27
2019-05-12T00:29:33.302Z,8.20
2019-05-12T00:32:03.257Z,9.10
2019-05-12T00:34:35.822Z,8.63
2019-05-12T00:37:05.730Z,8.80
2019-05-12T00:39:40.891Z,8.97
2019-05-12T00:42:10.959Z,8.57
2019-05-12T00:44:40.730Z,8.93
2019-05-12T00:47:10.481Z,9.27
2019-05-12T00:49:44.903Z,8.77
2019-05-12T00:52:14.673Z,8.80
2019-05-12T00:54:44.661Z,8.53
2019-05-12T00:57:14.818Z,9.27
2019-05-12T00:59:47.789Z,8.93
2019-05-12T01:02:18.410Z,7.53
2019-05-12T01:04:53.923Z,7.53
2019-05-12T01:07:23.942Z,7.20
2019-05-12T01:09:54.982Z,7.03
2019-05-12T01:12:24.828Z,7.03
2019-05-12T01:14:54.546Z,7.00
2019-05-12T01:17:28.486Z,7.40
2019-05-12T01:20:00.755Z,7.47
2019-05-12T01:22:31.138Z,6.00
2019-05-12T01:25:02.071Z,6.10
2019-05-12T01:27:37.883Z,5.93
2019-05-12T01:30:08.787Z,6.63
2019-05-12T01:32:40.317Z,5.50
2019-05-12T01:35:11.313Z,5.93
2019-05-12T01:37:41.060Z,5.80
2019-05-12T01:40:21.962Z,6.20
2019-05-12T01:42:58.169Z,5.83
2019-05-12T01:45:31.980Z,5.17
2019-05-12T01:48:03.240Z,4.90
2019-05-12T01:50:33.014Z,5.10
2019-05-12T01:53:02.786Z,5.07
2019-05-12T01:55:32.801Z,4.57
2019-05-12T01:58:03.157Z,4.60
2019-05-12T02:00:34.340Z,4.60
2019-05-12T02:03:09.824Z,4.40
2019-05-12T02:05:43.334Z,5.23
2019-05-12T02:08:22.296Z,5.30
2019-05-12T02:10:55.491Z,5.47
2019-05-12T02:13:29.935Z,4.77
2019-05-12T02:16:04.237Z,4.93
2019-05-12T02:18:33.986Z,5.60
2019-05-12T02:21:03.791Z,5.80
2019-05-12T02:23:38.580Z,4.70
2019-05-12T02:26:10.908Z,5.13
2019-05-12T02:28:41.153Z,4.57
2019-05-12T02:31:11.198Z,5.07
2019-05-12T02:33:48.424Z,4.20
2019-05-12T02:36:21.174Z,4.83
2019-05-12T02:38:50.948Z,4.40
2019-05-12T02:41:20.808Z,4.53
2019-05-12T02:43:50.543Z,4.47
2019-05-12T02:46:21.754Z,4.27
2019-05-12T02:48:54.512Z,3.93
2019-05-12T02:51:28.107Z,4.73
2019-05-12T02:53:58.304Z,4.27
2019-05-12T02:56:30.582Z,4.73
2019-05-12T02:59:05.155Z,4.30
2019-05-12T03:01:35.830Z,4.70
2019-05-12T03:04:06.128Z,4.00
2019-05-12T03:06:37.096Z,4.10
2019-05-12T03:09:09.015Z,4.57
2019-05-12T03:11:44.765Z,5.13
2019-05-12T03:14:15.565Z,5.20
2019-05-12T03:16:45.648Z,4.73
2019-05-12T03:19:15.445Z,4.70
2019-05-12T03:21:49.657Z,4.53
2019-05-12T03:24:19.434Z,5.07
2019-05-12T03:26:50.711Z,4.80
2019-05-12T03:29:25.032Z,4.43
2019-05-12T03:31:57.029Z,4.67
2019-05-12T03:34:29.475Z,4.50
2019-05-12T03:36:59.746Z,4.83
2019-05-12T03:39:34.401Z,4.30
2019-05-12T03:42:05.208Z,4.67
2019-05-12T03:44:35.360Z,4.70
2019-05-12T03:47:05.281Z,4.87
2019-05-12T03:49:35.209Z,5.00
2019-05-12T03:52:05.467Z,4.60
2019-05-12T03:54:35.274Z,4.83
2019-05-12T03:57:05.066Z,4.70
2019-05-12T03:59:35.056Z,4.70
2019-05-12T04:02:06.199Z,4.90
2019-05-12T04:04:36.014Z,4.67
2019-05-12T04:07:05.768Z,4.90
2019-05-12T04:09:35.555Z,5.83
2019-05-12T04:12:05.482Z,5.40
2019-05-12T04:14:35.254Z,5.00
2019-05-12T04:17:05.103Z,4.90
2019-05-12T04:19:34.927Z,4.70
2019-05-12T04:22:05.643Z,4.97
2019-05-12T04:24:35.971Z,4.93
2019-05-12T04:27:05.761Z,5.20
2019-05-12T04:29:35.582Z,4.83
2019-05-12T04:32:05.442Z,5.40
2019-05-12T04:34:38.395Z,4.90
2019-05-12T04:37:08.259Z,5.03
2019-05-12T04:39:44.741Z,4.87
2019-05-12T04:42:14.922Z,5.53
2019-05-12T04:44:45.020Z,4.83
2019-05-12T04:47:16.099Z,4.40
2019-05-12T04:49:45.860Z,3.97
2019-05-12T04:52:24.936Z,4.40
2019-05-12T04:54:57.686Z,4.50
2019-05-12T04:57:27.444Z,5.07
2019-05-12T04:59:57.222Z,4.80
2019-05-12T05:02:26.994Z,3.87
2019-05-12T05:04:56.819Z,4.60
2019-05-12T05:07:26.869Z,4.87
2019-05-12T05:09:56.681Z,4.57
2019-05-12T05:12:26.478Z,5.10
2019-05-12T05:14:56.313Z,4.90
2019-05-12T05:17:27.879Z,5.03
2019-05-12T05:20:03.955Z,5.27
2019-05-12T05:22:34.209Z,5.10
2019-05-12T05:25:04.384Z,5.10
2019-05-12T05:27:34.346Z,5.07
2019-05-12T05:30:04.349Z,5.23
2019-05-12T05:32:34.137Z,5.10
2019-05-12T05:35:07.199Z,4.80
2019-05-12T05:37:36.923Z,4.67
2019-05-12T05:40:07.022Z,4.13
2019-05-12T05:42:44.955Z,4.57
2019-05-12T05:45:19.610Z,5.27
2019-05-12T05:47:48.943Z,5.30
2019-05-12T05:50:18.425Z,5.33
2019-05-12T05:52:49.161Z,4.80
2019-05-12T05:55:27.652Z,5.53
2019-05-12T05:57:59.851Z,4.97
2019-05-12T06:00:29.026Z,5.37
2019-05-12T06:02:58.929Z,4.70
2019-05-12T06:05:30.779Z,4.80
2019-05-12T06:08:00.040Z,5.47
2019-05-12T06:10:36.051Z,5.13
2019-05-12T06:13:03.774Z,5.60
2019-05-12T06:15:53.722Z,6.07
2019-05-12T06:18:24.059Z,5.80
2019-05-12T06:20:57.017Z,5.93
2019-05-12T06:23:34.886Z,5.50
2019-05-12T06:26:04.667Z,5.63
2019-05-12T06:28:57.299Z,5.77
2019-05-12T06:31:29.764Z,5.90
2019-05-12T06:33:56.804Z,6.67
2019-05-12T06:36:54.766Z,6.13
2019-05-12T06:39:23.693Z,5.80
2019-05-12T06:41:56.710Z,6.57
2019-05-12T06:44:24.958Z,6.30
2019-05-12T06:47:06.950Z,6.10
2019-05-12T06:49:37.358Z,6.03
2019-05-12T06:52:10.990Z,6.33
2019-05-12T06:54:51.013Z,6.20
2019-05-12T06:57:24.075Z,6.50
2019-05-12T06:59:51.133Z,6.53
2019-05-12T07:02:20.666Z,6.77
2019-05-12T07:04:58.837Z,6.13
2019-05-12T07:07:27.595Z,6.43
2019-05-12T07:10:07.967Z,5.80
2019-05-12T07:12:43.534Z,6.47
2019-05-12T07:15:09.207Z,5.90
2019-05-12T07:18:09.953Z,6.53
2019-05-12T07:20:40.595Z,6.57
2019-05-12T07:23:10.312Z,6.17
2019-05-12T07:25:47.015Z,5.37
2019-05-12T07:28:36.302Z,6.03
2019-05-12T07:31:07.391Z,5.13
2019-05-12T07:33:47.570Z,5.83
2019-05-12T07:36:18.518Z,5.20
2019-05-12T07:39:13.405Z,5.53
2019-05-12T07:41:55.103Z,5.10
2019-05-12T07:44:44.141Z,5.37
2019-05-12T07:47:19.380Z,4.93
2019-05-12T07:49:57.262Z,5.43
2019-05-12T07:52:33.723Z,4.97
2019-05-12T07:54:58.999Z,5.27
2019-05-12T07:58:28.005Z,4.63
2019-05-12T08:02:14.281Z,4.60
2019-05-12T08:05:03.876Z,5.53
2019-05-12T08:08:11.155Z,4.77
2019-05-12T08:14:39.663Z,4.90
2019-05-12T08:17:57.708Z,4.30
2019-05-12T08:20:25.557Z,4.93
2019-05-12T08:23:37.597Z,4.27
2019-05-12T08:26:12.051Z,4.80
2019-05-12T08:28:40.461Z,4.67
2019-05-12T08:32:23.411Z,3.97
2019-05-12T08:39:17.299Z,3.87
2019-05-12T08:42:39.150Z,3.30
2019-05-12T08:45:38.384Z,3.87
2019-05-12T08:51:49.741Z,3.50
2019-05-12T08:54:54.410Z,3.80
2019-05-12T08:57:17.488Z,4.50
2019-05-12T09:00:10.563Z,4.70
2019-05-12T09:03:06.584Z,4.90
2019-05-12T09:05:39.603Z,5.23
2019-05-12T09:08:19.902Z,4.60
2019-05-12T09:11:24.254Z,4.50
2019-05-12T09:14:00.365Z,4.50
2019-05-12T09:16:25.453Z,4.47
2019-05-12T09:18:55.471Z,4.63
2019-05-12T09:22:26.284Z,4.63
2019-05-12T09:25:10.913Z,4.43
2019-05-12T09:27:47.975Z,4.63
2019-05-12T09:30:40.100Z,4.13
2019-05-12T09:36:11.324Z,3.40
2019-05-12T09:38:43.864Z,4.20
2019-05-12T09:44:26.489Z,3.63
2019-05-12T09:47:27.361Z,3.97
2019-05-12T09:49:41.419Z,3.90
2019-05-12T09:52:22.350Z,3.57
2019-05-12T09:58:07.863Z,3.87
2019-05-12T10:02:16.516Z,3.77
2019-05-12T10:08:29.316Z,2.77
2019-05-12T10:11:05.077Z,3.00
2019-05-12T10:14:06.471Z,3.73
2019-05-12T10:20:14.954Z,3.13
2019-05-12T10:22:45.066Z,3.20
2019-05-12T10:27:47.885Z,3.30
2019-05-12T10:30:47.301Z,3.20
2019-05-12T10:34:23.582Z,3.33
2019-05-12T10:37:47.359Z,2.73
2019-05-12T10:40:17.890Z,2.77
2019-05-12T10:42:53.433Z,3.43
2019-05-12T10:49:23.350Z,2.97
2019-05-12T10:51:54.279Z,2.60
2019-05-12T10:54:25.013Z,2.50
2019-05-12T10:57:14.083Z,2.50
2019-05-12T11:03:16.939Z,2.93
2019-05-12T11:06:14.117Z,2.67
2019-05-12T11:09:14.053Z,3.03
2019-05-12T11:12:40.936Z,2.87
2019-05-12T11:21:44.311Z,2.43
2019-05-12T11:24:27.168Z,2.20
2019-05-12T11:43:17.231Z,2.20
2019-05-12T11:50:10.217Z,2.03
2019-05-12T11:52:51.196Z,2.70
2019-05-12T11:56:13.852Z,2.13
2019-05-12T11:58:49.632Z,2.60
2019-05-12T12:01:39.727Z,2.47
2019-05-12T12:04:54.307Z,2.50
2019-05-12T12:08:35.652Z,2.07
2019-05-12T12:12:03.174Z,2.47
2019-05-12T12:18:04.081Z,2.27
2019-05-12T12:20:34.423Z,2.37
2019-05-12T12:23:28.211Z,2.37
2019-05-12T12:26:34.980Z,2.00
2019-05-12T12:29:13.604Z,2.40
2019-05-12T12:32:10.006Z,2.50
2019-05-12T12:38:33.435Z,2.80
2019-05-12T12:41:35.131Z,2.17
2019-05-12T12:44:59.275Z,2.50
2019-05-12T12:47:50.813Z,3.00
2019-05-12T12:50:41.056Z,2.57
2019-05-12T12:53:17.487Z,2.53
2019-05-12T12:56:18.151Z,2.60
2019-05-12T12:59:50.999Z,2.07
2019-05-12T13:02:27.555Z,2.60
2019-05-12T13:05:13.581Z,2.40
2019-05-12T13:12:16.040Z,2.30
2019-05-12T13:15:14.293Z,2.17
2019-05-12T13:20:40.245Z,2.33
2019-05-12T13:23:34.782Z,2.43
2019-05-12T13:25:58.910Z,2.20
2019-05-12T13:29:08.146Z,2.20
2019-05-12T13:32:13.767Z,2.37
2019-05-12T13:35:28.981Z,2.57
2019-05-12T13:44:00.422Z,2.20
2019-05-12T13:50:21.281Z,2.23
2019-05-12T13:56:53.393Z,1.80
2019-05-12T14:00:10.472Z,2.30
2019-05-12T14:03:14.229Z,2.03
2019-05-12T14:06:37.600Z,1.80
2019-05-12T14:09:30.631Z,2.10
2019-05-12T14:12:01.308Z,1.77
2019-05-12T14:28:28.115Z,2.03
2019-05-12T14:31:30.297Z,1.93
2019-05-12T14:34:19.279Z,2.00
2019-05-12T14:37:10.563Z,2.20
2019-05-12T14:40:05.182Z,1.73
2019-05-12T14:42:44.231Z,2.53
2019-05-12T14:45:36.798Z,2.10
2019-05-12T14:48:22.245Z,2.27
2019-05-12T14:50:57.646Z,3.20
2019-05-12T14:53:47.922Z,3.60
2019-05-12T14:56:55.432Z,3.90
2019-05-12T15:00:04.489Z,4.00
2019-05-12T15:02:37.957Z,3.47
2019-05-12T15:06:04.098Z,4.07
2019-05-12T15:08:55.948Z,3.70
2019-05-12T15:15:09.142Z,3.30
2019-05-12T15:18:03.124Z,3.00
2019-05-12T15:20:56.640Z,2.60
2019-05-12T15:23:38.658Z,2.90
2019-05-12T15:29:56.191Z,2.63
2019-05-12T15:36:29.979Z,2.27
2019-05-12T15:39:29.514Z,1.97
2019-05-12T15:42:28.141Z,2.03
2019-05-12T15:45:17.978Z,1.60
2019-05-12T15:51:16.962Z,2.43
2019-05-12T15:57:14.547Z,1.90
2019-05-12T16:03:30.684Z,2.30
2019-05-12T16:06:12.485Z,2.10
2019-05-12T16:12:37.176Z,2.60
2019-05-12T16:18:57.278Z,2.23
2019-05-12T16:36:51.885Z,2.20
2019-05-12T16:42:59.311Z,1.90
2019-05-12T17:02:53.888Z,2.20
2019-05-12T17:12:05.388Z,2.00
2019-05-12T17:14:48.823Z,2.07
2019-05-12T17:17:21.275Z,2.70
2019-05-12T17:20:33.388Z,2.60
2019-05-12T17:23:27.075Z,2.67
2019-05-12T17:26:16.883Z,2.30
2019-05-12T17:32:30.716Z,2.30
2019-05-12T17:38:56.112Z,2.37
2019-05-12T17:41:48.618Z,2.40
2019-05-12T17:44:43.634Z,2.13
2019-05-12T17:47:21.430Z,2.73
2019-05-12T17:50:40.289Z,2.30
2019-05-12T17:53:44.161Z,2.50
2019-05-12T17:56:47.083Z,2.13
2019-05-12T17:59:44.669Z,2.03
2019-05-12T18:02:30.811Z,2.30
2019-05-12T18:05:27.108Z,2.10
2019-05-12T18:08:23.991Z,2.10
2019-05-12T18:11:24.346Z,1.80
2019-05-12T18:14:27.891Z,2.10
2019-05-12T18:17:53.325Z,2.23
2019-05-12T18:20:37.360Z,2.50
2019-05-12T18:26:33.830Z,2.10
2019-05-12T18:29:39.384Z,2.87
2019-05-12T18:32:57.650Z,2.33
2019-05-12T18:39:03.815Z,2.40
2019-05-12T18:41:40.904Z,2.30
2019-05-12T18:44:38.270Z,2.30
2019-05-12T18:47:43.985Z,3.10
2019-05-12T18:50:50.963Z,2.77
2019-05-12T18:56:45.462Z,2.20
2019-05-12T19:00:01.410Z,2.37
2019-05-12T19:02:53.852Z,2.50
2019-05-12T19:09:17.909Z,2.50
2019-05-12T19:15:21.680Z,3.20
2019-05-12T19:18:10.451Z,2.40
2019-05-12T19:21:16.714Z,2.47
2019-05-12T19:23:54.308Z,2.33
2019-05-12T19:26:40.313Z,2.67
2019-05-12T19:29:38.682Z,2.73
2019-05-12T19:32:28.099Z,3.23
2019-05-12T19:38:35.489Z,3.30
2019-05-12T19:41:37.995Z,2.70
2019-05-12T19:44:30.697Z,2.70
2019-05-12T19:51:05.954Z,3.10
2019-05-12T19:57:05.763Z,2.10
2019-05-12T19:59:44.060Z,2.53
2019-05-12T20:02:34.064Z,2.90
2019-05-12T20:05:38.140Z,2.97
2019-05-12T20:09:05.648Z,2.40
2019-05-12T20:12:15.121Z,2.40
2019-05-12T20:14:50.911Z,2.53
2019-05-12T20:21:27.952Z,2.20
2019-05-12T20:24:55.917Z,2.57
2019-05-12T20:28:08.084Z,2.57
2019-05-12T20:31:23.479Z,2.80
2019-05-12T20:33:57.313Z,2.33
2019-05-12T20:40:20.360Z,3.03
2019-05-12T20:43:08.605Z,3.17
2019-05-12T20:53:14.313Z,2.30
2019-05-12T21:02:44.232Z,2.77
2019-05-12T21:05:43.845Z,2.63
2019-05-12T21:08:57.585Z,2.60
2019-05-12T21:11:50.801Z,3.13
2019-05-12T21:14:51.294Z,2.83
2019-05-12T21:20:59.008Z,3.00
2019-05-12T21:23:53.873Z,3.50
2019-05-12T21:26:47.966Z,3.20
2019-05-12T21:30:00.635Z,3.13
2019-05-12T21:39:53.540Z,3.60
2019-05-12T21:43:04.172Z,3.27
2019-05-12T21:46:38.307Z,4.17
2019-05-12T21:49:33.313Z,3.37
2019-05-12T21:52:26.840Z,3.40
2019-05-12T22:00:59.595Z,3.47
2019-05-12T22:04:14.350Z,3.50
2019-05-12T22:07:06.978Z,3.30
2019-05-12T22:10:04.776Z,3.00
2019-05-12T22:13:18.210Z,4.30
2019-05-12T22:16:14.036Z,7.90
2019-05-12T22:19:30.973Z,3.43
2019-05-12T22:22:44.422Z,3.87
2019-05-12T22:31:55.732Z,3.50
2019-05-12T22:34:54.325Z,3.67
2019-05-12T22:37:34.850Z,3.90
2019-05-12T22:40:15.155Z,3.50
2019-05-12T22:43:15.073Z,3.57
2019-05-12T22:54:00.411Z,3.17
2019-05-12T22:57:04.183Z,3.27
2019-05-12T23:00:13.462Z,3.40
2019-05-12T23:06:27.309Z,3.97
2019-05-12T23:09:06.865Z,3.40
2019-05-12T23:15:02.924Z,3.70
2019-05-12T23:17:31.074Z,3.50
2019-05-12T23:20:35.671Z,3.70
2019-05-12T23:23:33.992Z,3.40
2019-05-12T23:30:15.756Z,3.70
2019-05-12T23:36:56.856Z,3.73
2019-05-12T23:40:25.410Z,3.77
2019-05-12T23:47:09.892Z,3.60
2019-05-12T23:50:26.818Z,3.97
2019-05-12T23:56:34.648Z,3.97
